Time;durP1;ratioP1;P1;durP2;ratioP2;P2;SDS_P1;SDS_P2;PMS_P1;PMS_P2;Temp;Humidity;BMP_temperature;BMP_pressure;BME280_temperature;BME280_humidity;BME280_pressure;Samples;Min_cycle;Max_cycle;Signal;HPM_P1;HPM_P2
2023/05/28 00:02:10;;;;;;;21.50;14.30;;;9.80;99.90;;;;;;5096994;28;20130;-77
2023/05/28 00:04:36;;;;;;;22.85;13.93;;;9.70;99.90;;;;;;5092300;28;20108;-77
2023/05/28 00:07:02;;;;;;;24.65;14.63;;;9.70;99.90;;;;;;5083830;28;20039;-77
2023/05/28 00:09:28;;;;;;;27.08;16.33;;;9.70;99.90;;;;;;5097201;27;20035;-77
2023/05/28 00:11:55;;;;;;;28.80;17.35;;;9.60;99.90;;;;;;5099308;27;20050;-77
2023/05/28 00:14:21;;;;;;;26.77;17.15;;;9.60;99.90;;;;;;5091735;27;20043;-77
2023/05/28 00:16:47;;;;;;;34.38;18.63;;;9.50;99.90;;;;;;5093848;28;20035;-77
2023/05/28 00:19:13;;;;;;;27.55;17.90;;;9.70;99.90;;;;;;5098402;27;20073;-77
2023/05/28 00:21:38;;;;;;;35.03;18.63;;;9.60;99.90;;;;;;5099738;27;20164;-77
2023/05/28 00:24:05;;;;;;;28.83;16.95;;;9.70;99.90;;;;;;5093049;27;20031;-77
2023/05/28 00:26:31;;;;;;;28.70;17.10;;;9.80;99.90;;;;;;5110206;27;20435;-77
2023/05/28 00:28:56;;;;;;;28.30;17.35;;;9.90;99.90;;;;;;5100778;27;20035;-77
2023/05/28 00:31:22;;;;;;;27.10;15.77;;;9.90;99.90;;;;;;5101240;27;20491;-77
2023/05/28 00:33:48;;;;;;;25.83;16.00;;;9.90;99.90;;;;;;5100498;27;20548;-77
2023/05/28 00:36:13;;;;;;;27.50;16.58;;;10.00;99.90;;;;;;5098587;27;20043;-77
2023/05/28 00:38:39;;;;;;;27.80;17.35;;;10.10;99.90;;;;;;5092670;27;20120;-77
2023/05/28 00:41:05;;;;;;;28.65;16.35;;;10.00;99.90;;;;;;5100240;27;20519;-77
2023/05/28 00:43:31;;;;;;;27.30;16.33;;;10.10;99.90;;;;;;5100270;27;20035;-77
2023/05/28 00:46:03;;;;;;;29.10;16.05;;;10.10;99.90;;;;;;5098779;27;20036;-77
2023/05/28 00:48:30;;;;;;;27.13;15.80;;;10.10;99.90;;;;;;5087809;28;20120;-77
2023/05/28 00:50:58;;;;;;;26.35;15.05;;;10.00;99.90;;;;;;5094878;27;20041;-77
2023/05/28 00:53:25;;;;;;;25.75;15.40;;;10.00;99.90;;;;;;5099541;27;20042;-77
2023/05/28 00:55:51;;;;;;;27.08;14.40;;;10.00;99.90;;;;;;5099321;27;20046;-77
2023/05/28 00:58:19;;;;;;;26.92;15.30;;;10.00;99.90;;;;;;5091367;27;20035;-77
2023/05/28 01:00:47;;;;;;;28.77;15.85;;;10.00;99.90;;;;;;5100221;27;20039;-77
2023/05/28 01:03:13;;;;;;;27.65;15.65;;;9.90;99.90;;;;;;5098271;27;20127;-77
2023/05/28 01:05:39;;;;;;;27.80;15.25;;;9.90;99.90;;;;;;5091098;27;20121;-77
2023/05/28 01:08:06;;;;;;;24.20;15.40;;;9.80;99.90;;;;;;5099235;27;20038;-77
2023/05/28 01:10:32;;;;;;;24.30;15.73;;;9.70;99.90;;;;;;5079390;28;20044;-77
2023/05/28 01:13:00;;;;;;;24.20;15.52;;;9.60;99.90;;;;;;5079316;28;20035;-77
2023/05/28 01:15:25;;;;;;;24.88;16.15;;;9.50;99.90;;;;;;5080104;27;20097;-77
2023/05/28 01:18:01;;;;;;;21.35;13.15;;;9.40;99.90;;;;;;5098275;27;20039;-77
2023/05/28 01:20:28;;;;;;;21.15;13.80;;;9.30;99.90;;;;;;5101459;27;20046;-77
2023/05/28 01:22:59;;;;;;;21.83;14.63;;;9.30;99.90;;;;;;5100351;27;20050;-76
2023/05/28 01:25:26;;;;;;;28.30;16.42;;;9.20;99.90;;;;;;5098421;27;20062;-76
2023/05/28 01:27:52;;;;;;;21.42;14.80;;;9.10;99.90;;;;;;5097425;27;20031;-77
2023/05/28 01:30:18;;;;;;;24.58;15.68;;;9.10;99.90;;;;;;5098021;27;20039;-76
2023/05/28 01:32:44;;;;;;;26.63;17.10;;;9.00;99.90;;;;;;5099319;27;20069;-77
2023/05/28 01:35:10;;;;;;;25.70;15.45;;;9.00;99.90;;;;;;5116235;27;20066;-77
2023/05/28 01:37:49;;;;;;;28.02;17.98;;;9.00;99.90;;;;;;5089327;27;20393;-77
2023/05/28 01:40:17;;;;;;;24.95;16.98;;;9.00;99.90;;;;;;5090712;27;20052;-76
2023/05/28 01:42:45;;;;;;;34.03;17.48;;;9.00;99.90;;;;;;5099522;27;20400;-77
2023/05/28 01:45:11;;;;;;;27.67;16.67;;;9.00;99.90;;;;;;5098979;27;20490;-76
2023/05/28 01:47:38;;;;;;;26.65;16.48;;;9.10;99.90;;;;;;5088723;27;20031;-77
2023/05/28 01:50:05;;;;;;;26.92;15.82;;;9.10;99.90;;;;;;5095246;27;20493;-77
2023/05/28 01:52:31;;;;;;;25.00;15.35;;;9.20;99.90;;;;;;5089041;27;20035;-77
2023/05/28 01:54:56;;;;;;;25.92;15.40;;;9.30;99.90;;;;;;5083212;28;20039;-76
2023/05/28 01:57:22;;;;;;;26.80;16.67;;;9.30;99.90;;;;;;5104836;27;20119;-77
2023/05/28 01:59:48;;;;;;;21.83;15.35;;;9.50;99.90;;;;;;5097800;27;20042;-77
2023/05/28 02:02:14;;;;;;;27.17;15.32;;;9.60;99.90;;;;;;5123690;27;20118;-77
2023/05/28 02:04:39;;;;;;;23.23;15.00;;;9.60;99.90;;;;;;5081947;27;20031;-76
2023/05/28 02:07:06;;;;;;;25.40;14.65;;;9.60;99.90;;;;;;5096291;27;20131;-77
2023/05/28 02:09:32;;;;;;;29.60;16.30;;;9.70;99.90;;;;;;5115910;27;20079;-77
2023/05/28 02:12:02;;;;;;;27.35;15.70;;;9.60;99.90;;;;;;5098938;27;20081;-77
2023/05/28 02:14:28;;;;;;;25.08;14.95;;;9.70;99.90;;;;;;5094369;27;20498;-77
2023/05/28 02:16:54;;;;;;;26.48;16.38;;;9.70;99.90;;;;;;5085074;28;20127;-77
2023/05/28 02:19:20;;;;;;;25.58;15.25;;;9.70;99.90;;;;;;5093220;27;20156;-77
2023/05/28 02:21:48;;;;;;;23.83;14.15;;;9.70;99.90;;;;;;5102338;28;20039;-76
2023/05/28 02:24:16;;;;;;;24.42;14.43;;;9.70;99.90;;;;;;5112889;27;20035;-77
2023/05/28 02:26:45;;;;;;;26.10;15.13;;;9.70;99.90;;;;;;5108583;28;20071;-77
2023/05/28 02:29:11;;;;;;;28.70;14.02;;;9.70;99.90;;;;;;5111013;27;20045;-77
2023/05/28 02:31:36;;;;;;;27.60;14.73;;;9.70;99.90;;;;;;5097687;28;20032;-76
2023/05/28 02:34:02;;;;;;;23.45;15.32;;;9.80;99.90;;;;;;5097427;27;20240;-77
2023/05/28 02:36:29;;;;;;;22.98;16.58;;;9.70;99.90;;;;;;5097472;27;20073;-77
2023/05/28 02:38:55;;;;;;;25.40;15.45;;;9.70;99.90;;;;;;5097177;27;20066;-77
2023/05/28 02:41:21;;;;;;;27.92;16.33;;;9.60;99.90;;;;;;5098213;27;20086;-77
2023/05/28 02:43:47;;;;;;;23.42;16.02;;;9.60;99.90;;;;;;5088993;27;20067;-77
2023/05/28 02:46:13;;;;;;;25.17;16.15;;;9.60;99.90;;;;;;5096059;27;20091;-77
2023/05/28 02:48:39;;;;;;;30.48;17.98;;;9.60;99.90;;;;;;5090088;27;20080;-77
2023/05/28 02:51:05;;;;;;;28.85;15.55;;;9.60;99.90;;;;;;5097814;27;20035;-77
2023/05/28 02:53:33;;;;;;;27.15;15.85;;;9.60;99.90;;;;;;5107622;27;20043;-77
2023/05/28 02:56:08;;;;;;;30.10;17.33;;;9.60;99.90;;;;;;5085891;27;20035;-77
2023/05/28 02:58:36;;;;;;;25.95;16.95;;;9.60;99.90;;;;;;5106257;27;20054;-77
2023/05/28 03:01:03;;;;;;;24.45;15.13;;;9.50;99.90;;;;;;5097427;27;20039;-77
2023/05/28 03:03:31;;;;;;;24.80;15.30;;;9.50;99.90;;;;;;5114749;28;20070;-77
2023/05/28 03:05:57;;;;;;;27.98;15.95;;;9.50;99.90;;;;;;5095070;27;20043;-77
2023/05/28 03:08:22;;;;;;;24.95;16.17;;;9.50;99.90;;;;;;5097297;27;20039;-77
2023/05/28 03:10:48;;;;;;;26.25;15.75;;;9.50;99.90;;;;;;5091162;28;20071;-77
2023/05/28 03:13:13;;;;;;;26.10;14.88;;;9.40;99.90;;;;;;5094625;27;20039;-78
2023/05/28 03:15:39;;;;;;;29.08;16.95;;;9.40;99.90;;;;;;5113928;27;20144;-77
2023/05/28 03:18:05;;;;;;;26.98;14.50;;;9.40;99.90;;;;;;5087953;27;20039;-77
2023/05/28 03:20:31;;;;;;;25.50;14.80;;;9.40;99.90;;;;;;5093578;28;20027;-77
2023/05/28 03:22:57;;;;;;;28.25;14.77;;;9.50;99.90;;;;;;5092648;27;20493;-77
2023/05/28 03:25:26;;;;;;;24.02;14.63;;;9.50;99.90;;;;;;5086868;28;20039;-77
2023/05/28 03:27:54;;;;;;;28.52;15.80;;;9.60;99.90;;;;;;5088253;27;20076;-77
2023/05/28 03:30:21;;;;;;;24.38;14.85;;;9.50;99.90;;;;;;5096118;28;20046;-77
2023/05/28 03:32:48;;;;;;;26.45;15.43;;;9.60;99.90;;;;;;5083925;28;20453;-77
2023/05/28 03:35:14;;;;;;;28.77;15.68;;;9.60;99.90;;;;;;5079594;28;20494;-77
2023/05/28 03:37:39;;;;;;;27.05;14.43;;;9.70;99.90;;;;;;5085391;28;20089;-77
2023/05/28 03:40:08;;;;;;;26.55;13.82;;;9.70;99.90;;;;;;5097165;28;20126;-77
2023/05/28 03:42:35;;;;;;;29.00;15.02;;;9.80;99.90;;;;;;5095509;28;20096;-77
2023/05/28 03:45:03;;;;;;;27.83;14.35;;;9.80;99.90;;;;;;5136076;27;20564;-78
2023/05/28 03:47:31;;;;;;;24.42;13.55;;;9.80;99.90;;;;;;5091461;27;20082;-77
2023/05/28 03:49:58;;;;;;;21.95;14.43;;;9.90;99.90;;;;;;5118434;27;20043;-77
2023/05/28 03:52:24;;;;;;;23.08;13.25;;;9.90;99.90;;;;;;5092284;27;20095;-77
2023/05/28 03:54:51;;;;;;;25.58;13.80;;;9.90;99.90;;;;;;5118199;27;20046;-77
2023/05/28 03:57:16;;;;;;;27.77;14.23;;;10.00;99.90;;;;;;5099619;27;20075;-77
2023/05/28 03:59:42;;;;;;;25.67;14.88;;;10.00;99.90;;;;;;5101179;27;20085;-77
2023/05/28 04:02:10;;;;;;;23.88;13.30;;;10.00;99.90;;;;;;5101144;27;20396;-77
2023/05/28 04:04:36;;;;;;;25.00;14.05;;;10.00;99.90;;;;;;5100191;27;20042;-77
2023/05/28 04:07:02;;;;;;;27.10;14.02;;;10.00;99.90;;;;;;5100342;27;20091;-77
2023/05/28 04:09:27;;;;;;;26.35;14.23;;;9.90;99.90;;;;;;5101098;27;20035;-77
2023/05/28 04:11:53;;;;;;;24.05;14.75;;;9.80;99.90;;;;;;5118084;27;20043;-76
2023/05/28 04:14:20;;;;;;;23.23;14.25;;;9.80;99.90;;;;;;5099969;27;20126;-76
2023/05/28 04:16:46;;;;;;;25.50;14.40;;;9.80;99.90;;;;;;5099833;27;20118;-77
2023/05/28 04:19:11;;;;;;;25.98;15.90;;;9.70;99.90;;;;;;5100739;27;20042;-76
2023/05/28 04:21:37;;;;;;;23.42;14.48;;;9.70;99.90;;;;;;5089558;28;20422;-77
2023/05/28 04:24:03;;;;;;;24.88;14.13;;;9.70;99.90;;;;;;5083970;27;20400;-77
2023/05/28 04:26:32;;;;;;;23.30;14.48;;;9.70;99.90;;;;;;5090517;27;20043;-77
2023/05/28 04:28:59;;;;;;;22.88;13.60;;;9.70;99.90;;;;;;5100630;27;20081;-77
2023/05/28 04:31:27;;;;;;;21.92;12.95;;;9.80;99.90;;;;;;5117794;27;20114;-77
2023/05/28 04:33:53;;;;;;;19.50;12.70;;;9.90;99.90;;;;;;5116647;27;20145;-76
2023/05/28 04:36:19;;;;;;;21.25;13.27;;;10.00;99.90;;;;;;5095901;27;20035;-77
2023/05/28 04:38:46;;;;;;;20.35;12.70;;;10.20;99.90;;;;;;5100598;27;20072;-77
2023/05/28 04:41:15;;;;;;;19.95;11.82;;;10.60;99.90;;;;;;5117896;27;20458;-77
2023/05/28 04:43:41;;;;;;;18.20;11.57;;;11.20;99.90;;;;;;5099870;27;20146;-78
2023/05/28 04:46:08;;;;;;;19.65;10.38;;;11.80;99.90;;;;;;5095007;27;20532;-77
2023/05/28 04:48:37;;;;;;;18.40;10.10;;;12.30;99.90;;;;;;5083159;27;20050;-77
2023/05/28 04:51:03;;;;;;;17.02;9.70;;;12.80;99.90;;;;;;5099395;27;20038;-77
2023/05/28 04:53:31;;;;;;;20.75;10.65;;;13.20;99.90;;;;;;5099933;27;20027;-77
2023/05/28 04:55:56;;;;;;;16.27;9.05;;;13.60;99.90;;;;;;5098227;27;20079;-77
2023/05/28 04:58:25;;;;;;;16.60;9.30;;;13.80;99.90;;;;;;5099785;27;20074;-77
2023/05/28 05:00:52;;;;;;;18.92;9.93;;;13.90;99.90;;;;;;5099513;27;20043;-77
2023/05/28 05:03:18;;;;;;;18.13;9.50;;;14.20;99.90;;;;;;5099653;27;20043;-77
2023/05/28 05:05:43;;;;;;;16.85;8.93;;;14.40;99.90;;;;;;5094758;28;20045;-78
2023/05/28 05:08:13;;;;;;;17.52;9.38;;;14.60;99.90;;;;;;5097131;27;20068;-77
2023/05/28 05:10:39;;;;;;;17.85;9.25;;;14.90;99.90;;;;;;5116352;27;20039;-77
2023/05/28 05:13:05;;;;;;;17.33;9.35;;;15.00;99.90;;;;;;5099924;27;20035;-77
2023/05/28 05:15:30;;;;;;;18.30;9.30;;;15.00;99.90;;;;;;5094285;27;20059;-77
2023/05/28 05:17:59;;;;;;;16.63;9.63;;;14.70;99.90;;;;;;5111726;28;20040;-77
2023/05/28 05:20:26;;;;;;;15.57;8.70;;;14.50;99.90;;;;;;5096141;28;20042;-77
2023/05/28 05:22:52;;;;;;;17.23;8.70;;;14.70;99.90;;;;;;5096429;28;20478;-77
2023/05/28 05:25:18;;;;;;;14.70;8.55;;;15.00;99.90;;;;;;5098386;27;20043;-76
2023/05/28 05:27:44;;;;;;;16.85;9.15;;;15.00;99.90;;;;;;5093242;28;20043;-77
2023/05/28 05:30:10;;;;;;;15.10;8.65;;;15.20;99.90;;;;;;5096360;27;20078;-77
2023/05/28 05:32:38;;;;;;;15.73;8.98;;;15.40;99.90;;;;;;5129610;27;20035;-77
2023/05/28 05:35:04;;;;;;;14.35;8.38;;;15.60;99.90;;;;;;5097594;27;20122;-77
2023/05/28 05:37:30;;;;;;;15.43;8.25;;;15.70;99.90;;;;;;5109660;28;20031;-77
2023/05/28 05:39:58;;;;;;;17.13;8.63;;;16.00;99.90;;;;;;5110622;27;20443;-77
2023/05/28 05:42:23;;;;;;;14.77;8.23;;;16.30;99.90;;;;;;5099130;27;20043;-77
2023/05/28 05:44:49;;;;;;;17.90;8.45;;;16.60;99.90;;;;;;5116090;27;20043;-78
2023/05/28 05:47:15;;;;;;;15.38;8.50;;;16.80;99.90;;;;;;5095244;27;20130;-77
2023/05/28 05:49:40;;;;;;;16.20;8.05;;;16.80;99.90;;;;;;5091852;27;20035;-77
2023/05/28 05:52:06;;;;;;;17.90;8.27;;;16.70;99.90;;;;;;5098857;27;20374;-77
2023/05/28 05:54:32;;;;;;;15.27;7.80;;;16.50;99.90;;;;;;5089702;28;20031;-77
2023/05/28 05:56:59;;;;;;;17.45;8.85;;;16.10;99.90;;;;;;5098703;27;20031;-77
2023/05/28 05:59:24;;;;;;;13.90;7.78;;;15.90;99.90;;;;;;5097400;27;20051;-77
2023/05/28 06:01:50;;;;;;;17.30;8.43;;;15.70;99.90;;;;;;5096253;27;20058;-76
2023/05/28 06:04:16;;;;;;;15.43;8.38;;;15.40;99.90;;;;;;5098127;27;20073;-76
2023/05/28 06:06:42;;;;;;;16.20;7.93;;;15.40;99.90;;;;;;5097552;28;20177;-77
2023/05/28 06:09:08;;;;;;;14.57;7.97;;;15.20;99.90;;;;;;5097175;27;20401;-77
2023/05/28 06:11:34;;;;;;;15.52;8.25;;;15.10;99.90;;;;;;5098643;27;20046;-77
2023/05/28 06:14:00;;;;;;;18.23;8.93;;;14.90;99.90;;;;;;5098361;27;20476;-77
2023/05/28 06:16:28;;;;;;;18.00;8.85;;;14.80;99.90;;;;;;5098617;27;20034;-76
2023/05/28 06:18:53;;;;;;;16.23;8.35;;;14.80;99.90;;;;;;5097689;27;20071;-77
2023/05/28 06:21:19;;;;;;;15.55;8.00;;;14.70;99.90;;;;;;5098413;27;20066;-76
2023/05/28 06:23:45;;;;;;;17.13;8.07;;;14.70;99.90;;;;;;5097761;27;20039;-77
2023/05/28 06:26:12;;;;;;;15.23;7.97;;;14.70;99.90;;;;;;5085460;27;20035;-77
2023/05/28 06:28:38;;;;;;;15.38;7.82;;;14.60;99.90;;;;;;5113313;27;20043;-77
2023/05/28 06:31:04;;;;;;;16.95;8.10;;;14.50;99.90;;;;;;5088121;27;20130;-76
2023/05/28 06:33:32;;;;;;;14.68;8.00;;;14.50;99.90;;;;;;5094443;27;20036;-77
2023/05/28 06:35:58;;;;;;;15.35;8.38;;;14.60;99.90;;;;;;5085084;27;20068;-78
2023/05/28 06:38:24;;;;;;;18.13;8.68;;;14.60;99.90;;;;;;5094742;27;20051;-77
2023/05/28 06:40:52;;;;;;;17.15;8.13;;;14.60;99.90;;;;;;5090573;27;20035;-77
2023/05/28 06:43:21;;;;;;;16.00;8.30;;;14.60;99.90;;;;;;5110531;27;20045;-79
2023/05/28 06:45:46;;;;;;;13.45;6.75;;;14.60;99.90;;;;;;5089167;27;20045;-80
2023/05/28 06:48:12;;;;;;;15.48;7.32;;;14.70;99.90;;;;;;5088910;27;20035;-78
2023/05/28 06:50:41;;;;;;;14.40;7.75;;;14.80;99.90;;;;;;5090598;28;20038;-79
2023/05/28 06:53:15;;;;;;;14.50;8.57;;;14.90;99.90;;;;;;5080711;28;20043;-78
2023/05/28 06:55:41;;;;;;;15.82;8.32;;;15.00;99.90;;;;;;5083374;27;20126;-79
2023/05/28 06:58:09;;;;;;;16.30;8.10;;;15.00;99.90;;;;;;5089110;27;20031;-78
2023/05/28 07:00:35;;;;;;;13.50;8.10;;;15.20;99.90;;;;;;5090178;27;20123;-79
2023/05/28 07:03:01;;;;;;;13.38;7.20;;;15.30;99.90;;;;;;5097159;27;20039;-78
2023/05/28 07:05:30;;;;;;;14.40;7.38;;;15.50;99.90;;;;;;5089517;27;20042;-78
2023/05/28 07:07:56;;;;;;;16.88;7.00;;;15.60;99.90;;;;;;5096429;27;20051;-77
2023/05/28 07:10:22;;;;;;;14.93;7.35;;;15.60;99.90;;;;;;5094339;27;20469;-78
2023/05/28 07:12:50;;;;;;;13.27;7.28;;;15.70;99.90;;;;;;5089664;27;20039;-78
2023/05/28 07:15:17;;;;;;;14.50;7.38;;;15.80;99.90;;;;;;5097757;27;20035;-78
2023/05/28 07:17:45;;;;;;;12.30;7.10;;;15.80;99.90;;;;;;5097838;27;20043;-78
2023/05/28 07:20:11;;;;;;;13.43;7.25;;;15.90;99.90;;;;;;5098594;27;20126;-78
2023/05/28 07:22:37;;;;;;;13.40;6.60;;;16.00;99.90;;;;;;5096684;27;20049;-78
2023/05/28 07:25:03;;;;;;;13.75;7.22;;;16.10;99.90;;;;;;5091045;27;20031;-78
2023/05/28 07:27:32;;;;;;;13.27;6.28;;;16.20;99.90;;;;;;5088790;28;20386;-78
2023/05/28 07:29:59;;;;;;;14.45;7.25;;;16.20;99.90;;;;;;5082316;28;20054;-78
2023/05/28 07:32:27;;;;;;;11.90;6.45;;;16.30;99.90;;;;;;5098144;28;20043;-78
2023/05/28 07:34:56;;;;;;;14.90;7.07;;;16.50;99.90;;;;;;5097454;28;20489;-78
2023/05/28 07:37:24;;;;;;;15.00;7.03;;;16.70;99.90;;;;;;5087780;28;20065;-78
2023/05/28 07:39:50;;;;;;;11.60;6.65;;;16.90;99.90;;;;;;5098619;28;20099;-77
2023/05/28 07:42:16;;;;;;;13.85;7.07;;;17.00;99.90;;;;;;5097457;28;20035;-77
2023/05/28 07:44:42;;;;;;;13.00;7.28;;;17.20;99.90;;;;;;5097367;28;20118;-78
2023/05/28 07:47:07;;;;;;;18.25;7.30;;;17.60;99.90;;;;;;5095610;28;20131;-78
2023/05/28 07:49:36;;;;;;;14.80;7.13;;;18.30;99.90;;;;;;5097850;28;20098;-77
2023/05/28 07:52:02;;;;;;;14.57;7.10;;;19.00;99.90;;;;;;5093882;28;20030;-78
2023/05/28 07:54:29;;;;;;;14.32;6.75;;;19.50;99.90;;;;;;5092592;28;20364;-78
2023/05/28 07:56:54;;;;;;;12.93;6.43;;;19.90;99.90;;;;;;5082662;28;20036;-78
2023/05/28 07:59:21;;;;;;;13.18;6.70;;;20.50;94.40;;;;;;5098947;28;20047;-78
2023/05/28 08:01:47;;;;;;;11.80;6.35;;;20.90;78.30;;;;;;5094665;28;20058;-78
2023/05/28 08:04:13;;;;;;;11.80;5.97;;;21.00;74.80;;;;;;5116512;28;20489;-78
2023/05/28 08:06:39;;;;;;;13.32;6.43;;;21.20;72.50;;;;;;5098487;28;20556;-78
2023/05/28 08:09:05;;;;;;;12.63;6.38;;;21.30;71.30;;;;;;5095795;28;20039;-77
2023/05/28 08:11:31;;;;;;;11.85;6.25;;;21.30;71.00;;;;;;5111377;28;20173;-78
2023/05/28 08:13:57;;;;;;;15.40;6.82;;;21.50;69.60;;;;;;5096152;28;20056;-77
2023/05/28 08:16:23;;;;;;;12.65;6.70;;;21.60;69.80;;;;;;5112795;28;20050;-77
2023/05/28 08:18:49;;;;;;;12.65;6.28;;;21.80;70.90;;;;;;5091077;28;20067;-77
2023/05/28 08:21:15;;;;;;;11.10;5.78;;;22.10;68.40;;;;;;5096185;28;20078;-78
2023/05/28 08:23:40;;;;;;;12.15;6.30;;;22.40;68.70;;;;;;5091121;28;20493;-77
2023/05/28 08:26:06;;;;;;;10.93;6.22;;;22.80;68.90;;;;;;5095147;28;20100;-77
2023/05/28 08:28:32;;;;;;;12.10;6.38;;;23.10;65.50;;;;;;5095909;28;20035;-77
2023/05/28 08:30:57;;;;;;;15.93;6.40;;;23.30;65.90;;;;;;5095665;27;20091;-77
2023/05/28 08:33:24;;;;;;;11.27;6.25;;;23.40;64.40;;;;;;5100547;27;20035;-77
2023/05/28 08:35:49;;;;;;;11.27;6.70;;;23.50;62.80;;;;;;5098446;27;20035;-76
2023/05/28 08:38:15;;;;;;;13.38;7.00;;;23.40;64.40;;;;;;5090658;27;20184;-76
2023/05/28 08:40:47;;;;;;;12.95;6.50;;;23.50;63.80;;;;;;5096017;28;20092;-76
2023/05/28 08:43:13;;;;;;;10.75;6.38;;;23.70;62.80;;;;;;5088590;27;20047;-76
2023/05/28 08:45:38;;;;;;;13.45;6.75;;;23.80;61.90;;;;;;5096690;27;20465;-76
2023/05/28 08:48:06;;;;;;;11.90;6.60;;;23.90;63.80;;;;;;5109676;27;20482;-75
2023/05/28 08:50:35;;;;;;;12.65;6.57;;;24.20;62.00;;;;;;5133338;27;20031;-75
2023/05/28 08:53:02;;;;;;;11.30;6.40;;;24.40;61.30;;;;;;5107227;27;20469;-76
2023/05/28 08:55:28;;;;;;;11.48;6.40;;;24.30;61.80;;;;;;5087747;27;20067;-76
2023/05/28 08:57:54;;;;;;;13.35;6.78;;;24.10;61.70;;;;;;5106263;28;20082;-76
2023/05/28 09:00:21;;;;;;;11.07;6.60;;;24.10;60.40;;;;;;5115459;27;20104;-75
2023/05/28 09:02:47;;;;;;;12.80;6.82;;;24.20;58.60;;;;;;5097443;27;20405;-76
2023/05/28 09:05:12;;;;;;;11.00;6.57;;;23.90;59.30;;;;;;5100181;27;20031;-76
2023/05/28 09:07:38;;;;;;;12.27;7.05;;;23.90;58.50;;;;;;5085464;28;20031;-76
2023/05/28 09:10:04;;;;;;;13.75;7.30;;;23.60;60.30;;;;;;5112741;27;20090;-76
2023/05/28 09:12:30;;;;;;;13.38;6.82;;;23.70;61.50;;;;;;5097292;27;20153;-76
2023/05/28 09:14:59;;;;;;;12.15;7.18;;;24.10;61.60;;;;;;5100197;27;20065;-77
2023/05/28 09:17:35;;;;;;;11.52;6.95;;;24.60;61.80;;;;;;5091808;27;20039;-76
2023/05/28 09:20:09;;;;;;;11.55;6.55;;;25.20;61.10;;;;;;5102267;28;20028;-76
2023/05/28 09:22:35;;;;;;;12.60;6.60;;;25.80;58.50;;;;;;5081692;28;20126;-76
2023/05/28 09:25:01;;;;;;;15.07;6.80;;;26.00;55.70;;;;;;5081188;28;20071;-76
2023/05/28 09:27:27;;;;;;;10.65;6.45;;;25.70;57.60;;;;;;5099493;27;20464;-76
2023/05/28 09:29:53;;;;;;;12.00;7.07;;;25.80;58.40;;;;;;5097850;27;20031;-77
2023/05/28 09:32:22;;;;;;;10.85;7.00;;;26.00;59.90;;;;;;5134274;27;20035;-77
2023/05/28 09:34:51;;;;;;;9.88;6.72;;;26.40;57.50;;;;;;5093295;27;20516;-76
2023/05/28 09:37:17;;;;;;;11.68;6.60;;;26.80;55.00;;;;;;5089685;28;20489;-77
2023/05/28 09:39:43;;;;;;;11.00;6.30;;;26.90;52.60;;;;;;5086748;27;20394;-77
2023/05/28 09:42:10;;;;;;;11.38;7.15;;;26.30;53.50;;;;;;5097369;27;20054;-77
2023/05/28 09:44:38;;;;;;;13.27;7.25;;;25.80;55.80;;;;;;5085731;28;20118;-78
2023/05/28 09:47:17;;;;;;;10.80;6.90;;;25.90;53.00;;;;;;5130219;27;20087;-77
2023/05/28 09:49:45;;;;;;;10.40;6.65;;;25.70;54.20;;;;;;5116224;27;20119;-77
2023/05/28 09:52:20;;;;;;;10.43;6.80;;;25.30;55.20;;;;;;5096971;27;20476;-77
2023/05/28 09:54:51;;;;;;;10.70;6.93;;;25.40;54.50;;;;;;5084753;27;20363;-77
2023/05/28 09:57:22;;;;;;;10.05;7.00;;;25.30;53.50;;;;;;5096278;27;20043;-77
2023/05/28 09:59:53;;;;;;;11.73;6.72;;;25.20;53.80;;;;;;5096510;27;20104;-78
2023/05/28 10:02:35;;;;;;;10.20;5.88;;;25.00;55.20;;;;;;5112006;27;20137;-78
2023/05/28 10:05:05;;;;;;;10.90;6.53;;;25.20;55.20;;;;;;5096204;27;20103;-78
2023/05/28 10:07:31;;;;;;;11.35;6.78;;;25.50;54.70;;;;;;5095435;27;20035;-77
2023/05/28 10:09:59;;;;;;;10.70;5.97;;;25.80;52.70;;;;;;5098886;27;20088;-78
2023/05/28 10:12:29;;;;;;;10.65;6.03;;;25.70;53.60;;;;;;5089896;27;20378;-78
2023/05/28 10:14:55;;;;;;;8.60;5.53;;;25.40;56.00;;;;;;5090186;27;20035;-78
2023/05/28 10:17:21;;;;;;;11.82;5.93;;;25.60;57.40;;;;;;5095691;27;20115;-78
2023/05/28 10:19:47;;;;;;;10.32;5.72;;;26.20;57.90;;;;;;5098113;27;20070;-77
2023/05/28 10:22:17;;;;;;;10.10;5.93;;;26.80;53.00;;;;;;5102481;27;20050;-78
2023/05/28 10:24:44;;;;;;;8.52;5.32;;;27.10;50.20;;;;;;5096228;28;20035;-78
2023/05/28 10:27:15;;;;;;;11.00;5.78;;;26.60;52.60;;;;;;5117946;27;20048;-78
2023/05/28 10:29:43;;;;;;;10.52;5.60;;;26.90;49.70;;;;;;5079239;28;20458;-78
2023/05/28 10:32:09;;;;;;;9.75;5.03;;;26.50;50.90;;;;;;5104428;27;20035;-78
2023/05/28 10:34:36;;;;;;;9.65;6.22;;;26.20;53.10;;;;;;5092411;27;20089;-77
2023/05/28 10:37:10;;;;;;;8.40;5.40;;;26.50;51.50;;;;;;5085540;28;20082;-78
2023/05/28 10:39:45;;;;;;;9.38;5.28;;;26.50;51.40;;;;;;5107648;27;20035;-78
2023/05/28 10:42:23;;;;;;;11.55;5.43;;;26.80;50.30;;;;;;5106116;27;20501;-78
2023/05/28 10:45:08;;;;;;;8.98;5.20;;;27.00;50.40;;;;;;5113544;27;20556;-78
2023/05/28 10:47:39;;;;;;;7.68;4.95;;;27.00;49.10;;;;;;5089847;27;20521;-79
2023/05/28 10:50:08;;;;;;;8.55;4.75;;;27.10;50.00;;;;;;5116998;27;20465;-79
2023/05/28 10:52:34;;;;;;;9.05;5.18;;;27.50;49.00;;;;;;5088870;27;20031;-78
2023/05/28 10:55:03;;;;;;;9.07;5.20;;;27.60;49.40;;;;;;5094152;27;20031;-78
2023/05/28 10:57:46;;;;;;;8.73;4.82;;;27.60;46.00;;;;;;5078844;28;20039;-78
2023/05/28 11:00:21;;;;;;;11.80;5.88;;;27.50;47.30;;;;;;5085936;27;20049;-78
2023/05/28 11:02:51;;;;;;;7.47;4.93;;;27.60;47.70;;;;;;5113943;27;20039;-78
2023/05/28 11:05:17;;;;;;;8.27;5.30;;;27.90;45.90;;;;;;5088007;27;20100;-78
2023/05/28 11:07:43;;;;;;;9.27;5.35;;;27.90;48.20;;;;;;5097928;27;20043;-78
2023/05/28 11:10:12;;;;;;;7.68;4.90;;;28.20;44.50;;;;;;5098099;27;20485;-78
2023/05/28 11:12:40;;;;;;;9.65;5.10;;;28.20;45.20;;;;;;5096982;27;20031;-78
2023/05/28 11:15:07;;;;;;;8.88;5.35;;;28.20;47.10;;;;;;5089281;28;20505;-79
2023/05/28 11:17:37;;;;;;;7.95;5.30;;;28.30;45.60;;;;;;5098110;27;20039;-78
2023/05/28 11:20:03;;;;;;;8.23;5.72;;;28.50;45.00;;;;;;5115035;27;20039;-78
2023/05/28 11:22:36;;;;;;;10.07;5.80;;;28.60;45.10;;;;;;5096013;27;20087;-78
2023/05/28 11:25:09;;;;;;;8.63;5.07;;;28.50;45.90;;;;;;5112481;27;20039;-79
2023/05/28 11:27:37;;;;;;;7.82;5.40;;;28.60;45.20;;;;;;5114132;27;20103;-78
2023/05/28 11:30:24;;;;;;;7.95;5.43;;;28.80;46.20;;;;;;5098073;27;20075;-78
2023/05/28 11:32:50;;;;;;;7.95;5.15;;;29.10;42.60;;;;;;5096302;28;20113;-78
2023/05/28 11:35:17;;;;;;;12.18;5.82;;;28.30;42.40;;;;;;5096966;27;20035;-77
2023/05/28 11:37:44;;;;;;;8.73;5.55;;;27.70;43.60;;;;;;5098567;28;20042;-77
2023/05/28 11:40:12;;;;;;;8.73;5.15;;;27.40;44.40;;;;;;5097641;28;20050;-77
2023/05/28 11:42:39;;;;;;;7.93;5.30;;;27.20;45.00;;;;;;5105526;28;20038;-78
2023/05/28 11:45:06;;;;;;;8.73;5.32;;;27.50;43.80;;;;;;5089256;27;20100;-77
2023/05/28 11:47:36;;;;;;;7.25;4.93;;;27.30;43.80;;;;;;5113108;28;20114;-77
2023/05/28 11:50:13;;;;;;;9.20;5.53;;;27.10;44.80;;;;;;5097216;28;20028;-77
2023/05/28 11:52:39;;;;;;;8.13;4.97;;;27.00;46.70;;;;;;5122841;28;20349;-77
2023/05/28 11:55:05;;;;;;;8.55;5.55;;;27.50;47.10;;;;;;5088071;28;20032;-78
2023/05/28 11:57:38;;;;;;;7.82;5.10;;;28.20;42.10;;;;;;5095732;28;20512;-77
2023/05/28 12:00:10;;;;;;;7.88;5.47;;;27.90;41.90;;;;;;5089085;28;20039;-78
2023/05/28 12:02:45;;;;;;;6.75;5.13;;;27.40;41.10;;;;;;5105699;28;20076;-77
2023/05/28 12:05:12;;;;;;;7.45;5.18;;;27.00;42.50;;;;;;5093801;27;20046;-78
2023/05/28 12:07:43;;;;;;;7.60;5.28;;;27.00;42.40;;;;;;5100956;27;20035;-77
2023/05/28 12:10:13;;;;;;;8.57;4.80;;;26.90;41.70;;;;;;5096957;28;20036;-79
2023/05/28 12:12:46;;;;;;;7.82;5.40;;;26.90;42.20;;;;;;5100286;27;20502;-78
2023/05/28 12:15:13;;;;;;;5.75;4.43;;;26.70;41.30;;;;;;5094780;27;20035;-77
2023/05/28 12:17:41;;;;;;;6.22;4.43;;;26.60;41.90;;;;;;5100205;27;20039;-78
2023/05/28 12:20:15;;;;;;;7.22;4.60;;;26.50;42.00;;;;;;5099771;27;20067;-77
2023/05/28 12:22:42;;;;;;;6.00;4.60;;;26.60;40.70;;;;;;5099608;27;20054;-78
2023/05/28 12:25:08;;;;;;;6.03;4.70;;;26.60;43.10;;;;;;5136456;27;20031;-78
2023/05/28 12:27:35;;;;;;;5.30;4.57;;;27.00;41.00;;;;;;5112774;28;20044;-78
2023/05/28 12:30:05;;;;;;;5.53;4.60;;;27.00;40.50;;;;;;5113127;27;20035;-79
2023/05/28 12:32:31;;;;;;;5.43;4.55;;;27.20;40.60;;;;;;5101509;27;20493;-80
2023/05/28 12:34:57;;;;;;;6.25;4.55;;;27.20;41.10;;;;;;5092497;27;20038;-79
2023/05/28 12:37:23;;;;;;;6.38;5.00;;;27.20;40.50;;;;;;5095002;27;20304;-79
2023/05/28 12:39:52;;;;;;;5.63;4.60;;;27.40;41.50;;;;;;5095852;27;20034;-79